sensor_id;sensor_type;location;lat;lon;timestamp;P1;durP1;ratioP1;P2;durP2;ratioP2
55206;SDS011;41079;52.856;6.534;2022-08-21T00:02:29;811.72;;;344.33;;
55206;SDS011;41079;52.856;6.534;2022-08-21T00:04:56;810.65;;;342.67;;
55206;SDS011;41079;52.856;6.534;2022-08-21T00:21:37;814.75;;;346.38;;
55206;SDS011;41079;52.856;6.534;2022-08-21T00:24:02;791.80;;;323.00;;
55206;SDS011;41079;52.856;6.534;2022-08-21T00:26:28;810.47;;;342.77;;
55206;SDS011;41079;52.856;6.534;2022-08-21T00:28:54;813.45;;;344.80;;
55206;SDS011;41079;52.856;6.534;2022-08-21T00:31:34;813.60;;;345.77;;
55206;SDS011;41079;52.856;6.534;2022-08-21T00:37:43;810.05;;;342.60;;
55206;SDS011;41079;52.856;6.534;2022-08-21T00:40:12;812.95;;;342.98;;
55206;SDS011;41079;52.856;6.534;2022-08-21T00:42:56;809.10;;;340.40;;
55206;SDS011;41079;52.856;6.534;2022-08-21T00:45:39;813.35;;;344.13;;
55206;SDS011;41079;52.856;6.534;2022-08-21T00:48:05;808.10;;;339.05;;
55206;SDS011;41079;52.856;6.534;2022-08-21T00:50:52;810.78;;;342.95;;
55206;SDS011;41079;52.856;6.534;2022-08-21T00:53:36;808.67;;;340.10;;
55206;SDS011;41079;52.856;6.534;2022-08-21T00:56:09;809.00;;;341.35;;
55206;SDS011;41079;52.856;6.534;2022-08-21T00:58:47;807.63;;;339.40;;
55206;SDS011;41079;52.856;6.534;2022-08-21T01:01:14;814.13;;;345.58;;
55206;SDS011;41079;52.856;6.534;2022-08-21T01:03:40;808.65;;;340.27;;
55206;SDS011;41079;52.856;6.534;2022-08-21T01:06:07;810.88;;;342.45;;
55206;SDS011;41079;52.856;6.534;2022-08-21T01:08:36;812.53;;;344.50;;
55206;SDS011;41079;52.856;6.534;2022-08-21T01:11:17;808.33;;;339.20;;
55206;SDS011;41079;52.856;6.534;2022-08-21T01:13:43;814.95;;;344.98;;
55206;SDS011;41079;52.856;6.534;2022-08-21T01:19:22;812.05;;;341.83;;
55206;SDS011;41079;52.856;6.534;2022-08-21T01:22:05;802.75;;;333.88;;
55206;SDS011;41079;52.856;6.534;2022-08-21T01:27:19;810.00;;;340.42;;
55206;SDS011;41079;52.856;6.534;2022-08-21T01:29:51;805.28;;;334.88;;
55206;SDS011;41079;52.856;6.534;2022-08-21T01:35:53;814.45;;;343.50;;
55206;SDS011;41079;52.856;6.534;2022-08-21T01:38:24;798.45;;;329.17;;
55206;SDS011;41079;52.856;6.534;2022-08-21T01:40:50;794.28;;;325.98;;
55206;SDS011;41079;52.856;6.534;2022-08-21T01:43:17;814.38;;;343.20;;
55206;SDS011;41079;52.856;6.534;2022-08-21T01:53:53;801.75;;;331.35;;
55206;SDS011;41079;52.856;6.534;2022-08-21T01:56:21;809.47;;;337.70;;
55206;SDS011;41079;52.856;6.534;2022-08-21T01:58:51;808.60;;;336.75;;
55206;SDS011;41079;52.856;6.534;2022-08-21T02:01:18;814.45;;;342.65;;
55206;SDS011;41079;52.856;6.534;2022-08-21T02:03:47;805.05;;;334.50;;
55206;SDS011;41079;52.856;6.534;2022-08-21T02:08:50;815.45;;;342.98;;
55206;SDS011;41079;52.856;6.534;2022-08-21T02:11:27;813.78;;;342.27;;
55206;SDS011;41079;52.856;6.534;2022-08-21T02:14:10;813.75;;;341.80;;
55206;SDS011;41079;52.856;6.534;2022-08-21T02:19:10;808.78;;;337.77;;
55206;SDS011;41079;52.856;6.534;2022-08-21T02:21:37;807.83;;;336.20;;
55206;SDS011;41079;52.856;6.534;2022-08-21T02:24:10;804.78;;;334.17;;
55206;SDS011;41079;52.856;6.534;2022-08-21T02:35:22;805.63;;;335.03;;
55206;SDS011;41079;52.856;6.534;2022-08-21T02:38:06;801.22;;;331.77;;
55206;SDS011;41079;52.856;6.534;2022-08-21T02:40:35;806.72;;;336.33;;
55206;SDS011;41079;52.856;6.534;2022-08-21T02:46:13;808.25;;;337.02;;
55206;SDS011;41079;52.856;6.534;2022-08-21T02:48:44;812.92;;;341.65;;
55206;SDS011;41079;52.856;6.534;2022-08-21T02:54:02;803.00;;;332.13;;
55206;SDS011;41079;52.856;6.534;2022-08-21T02:56:37;812.22;;;341.23;;
55206;SDS011;41079;52.856;6.534;2022-08-21T03:02:14;813.80;;;341.55;;
55206;SDS011;41079;52.856;6.534;2022-08-21T03:04:44;807.65;;;336.92;;
55206;SDS011;41079;52.856;6.534;2022-08-21T03:07:28;807.00;;;336.52;;
55206;SDS011;41079;52.856;6.534;2022-08-21T03:09:58;803.83;;;334.10;;
55206;SDS011;41079;52.856;6.534;2022-08-21T03:12:24;807.28;;;336.00;;
55206;SDS011;41079;52.856;6.534;2022-08-21T03:15:02;795.65;;;327.23;;
55206;SDS011;41079;52.856;6.534;2022-08-21T03:17:32;803.03;;;332.45;;
55206;SDS011;41079;52.856;6.534;2022-08-21T03:19:59;799.13;;;330.98;;
55206;SDS011;41079;52.856;6.534;2022-08-21T03:22:28;812.50;;;341.40;;
55206;SDS011;41079;52.856;6.534;2022-08-21T03:28:04;800.15;;;329.45;;
55206;SDS011;41079;52.856;6.534;2022-08-21T03:30:34;807.00;;;335.63;;
55206;SDS011;41079;52.856;6.534;2022-08-21T03:33:01;803.30;;;332.98;;
55206;SDS011;41079;52.856;6.534;2022-08-21T03:35:30;802.65;;;332.70;;
55206;SDS011;41079;52.856;6.534;2022-08-21T03:38:12;804.10;;;333.30;;
55206;SDS011;41079;52.856;6.534;2022-08-21T03:43:34;812.92;;;340.67;;
55206;SDS011;41079;52.856;6.534;2022-08-21T03:46:01;798.75;;;330.13;;
55206;SDS011;41079;52.856;6.534;2022-08-21T03:48:29;805.25;;;335.20;;
55206;SDS011;41079;52.856;6.534;2022-08-21T03:50:56;806.38;;;335.58;;
55206;SDS011;41079;52.856;6.534;2022-08-21T03:53:22;796.55;;;327.80;;
55206;SDS011;41079;52.856;6.534;2022-08-21T03:58:32;804.63;;;334.23;;
55206;SDS011;41079;52.856;6.534;2022-08-21T04:01:02;805.05;;;334.40;;
55206;SDS011;41079;52.856;6.534;2022-08-21T04:03:41;810.20;;;338.05;;
55206;SDS011;41079;52.856;6.534;2022-08-21T04:06:10;801.72;;;331.13;;
55206;SDS011;41079;52.856;6.534;2022-08-21T04:08:53;795.55;;;326.83;;
55206;SDS011;41079;52.856;6.534;2022-08-21T04:11:31;798.67;;;329.83;;
55206;SDS011;41079;52.856;6.534;2022-08-21T04:13:56;799.45;;;331.00;;
55206;SDS011;41079;52.856;6.534;2022-08-21T04:16:22;803.17;;;333.05;;
55206;SDS011;41079;52.856;6.534;2022-08-21T04:18:52;799.60;;;330.30;;
55206;SDS011;41079;52.856;6.534;2022-08-21T04:21:17;802.72;;;333.50;;
55206;SDS011;41079;52.856;6.534;2022-08-21T04:26:48;803.20;;;333.63;;
55206;SDS011;41079;52.856;6.534;2022-08-21T04:29:16;801.83;;;332.50;;
55206;SDS011;41079;52.856;6.534;2022-08-21T04:31:41;797.33;;;329.40;;
55206;SDS011;41079;52.856;6.534;2022-08-21T04:34:20;801.90;;;332.17;;
55206;SDS011;41079;52.856;6.534;2022-08-21T04:36:46;806.75;;;337.67;;
55206;SDS011;41079;52.856;6.534;2022-08-21T04:39:16;801.42;;;332.02;;
55206;SDS011;41079;52.856;6.534;2022-08-21T04:41:42;801.80;;;333.90;;
55206;SDS011;41079;52.856;6.534;2022-08-21T04:44:15;801.90;;;333.52;;
55206;SDS011;41079;52.856;6.534;2022-08-21T04:46:40;806.58;;;338.30;;
55206;SDS011;41079;52.856;6.534;2022-08-21T04:49:07;796.88;;;331.13;;
55206;SDS011;41079;52.856;6.534;2022-08-21T04:51:36;789.90;;;324.60;;
55206;SDS011;41079;52.856;6.534;2022-08-21T04:54:21;799.40;;;335.60;;
55206;SDS011;41079;52.856;6.534;2022-08-21T04:57:06;806.92;;;344.17;;
55206;SDS011;41079;52.856;6.534;2022-08-21T04:59:43;802.72;;;340.33;;
55206;SDS011;41079;52.856;6.534;2022-08-21T05:02:18;805.42;;;345.00;;
55206;SDS011;41079;52.856;6.534;2022-08-21T05:04:58;803.88;;;342.42;;
55206;SDS011;41079;52.856;6.534;2022-08-21T05:07:28;802.20;;;340.45;;
55206;SDS011;41079;52.856;6.534;2022-08-21T05:10:03;791.20;;;326.30;;
55206;SDS011;41079;52.856;6.534;2022-08-21T05:12:30;790.60;;;323.23;;
55206;SDS011;41079;52.856;6.534;2022-08-21T05:17:31;792.78;;;320.90;;
55206;SDS011;41079;52.856;6.534;2022-08-21T05:25:12;797.90;;;317.83;;
55206;SDS011;41079;52.856;6.534;2022-08-21T05:30:34;801.42;;;316.65;;
55206;SDS011;41079;52.856;6.534;2022-08-21T05:33:03;809.25;;;326.63;;
55206;SDS011;41079;52.856;6.534;2022-08-21T05:35:33;809.03;;;327.10;;
55206;SDS011;41079;52.856;6.534;2022-08-21T05:41:00;808.60;;;327.40;;
55206;SDS011;41079;52.856;6.534;2022-08-21T05:52:20;798.05;;;314.70;;
55206;SDS011;41079;52.856;6.534;2022-08-21T05:54:52;807.78;;;324.67;;
55206;SDS011;41079;52.856;6.534;2022-08-21T05:57:31;808.67;;;325.10;;
55206;SDS011;41079;52.856;6.534;2022-08-21T06:00:04;805.15;;;320.35;;
55206;SDS011;41079;52.856;6.534;2022-08-21T06:13:41;806.85;;;317.35;;
55206;SDS011;41079;52.856;6.534;2022-08-21T06:16:10;810.13;;;319.55;;
55206;SDS011;41079;52.856;6.534;2022-08-21T06:18:41;807.40;;;315.17;;
55206;SDS011;41079;52.856;6.534;2022-08-21T06:23:45;809.95;;;316.52;;
55206;SDS011;41079;52.856;6.534;2022-08-21T06:29:28;810.00;;;313.90;;
55206;SDS011;41079;52.856;6.534;2022-08-21T06:31:58;798.17;;;300.30;;
55206;SDS011;41079;52.856;6.534;2022-08-21T06:34:23;800.58;;;300.40;;
55206;SDS011;41079;52.856;6.534;2022-08-21T06:37:01;803.80;;;302.05;;
55206;SDS011;41079;52.856;6.534;2022-08-21T06:39:41;805.20;;;300.85;;
55206;SDS011;41079;52.856;6.534;2022-08-21T06:42:06;799.30;;;294.67;;
55206;SDS011;41079;52.856;6.534;2022-08-21T06:44:44;802.67;;;296.50;;
55206;SDS011;41079;52.856;6.534;2022-08-21T06:50:16;808.95;;;299.13;;
55206;SDS011;41079;52.856;6.534;2022-08-21T06:52:49;801.55;;;290.48;;
55206;SDS011;41079;52.856;6.534;2022-08-21T06:55:16;804.03;;;291.23;;
55206;SDS011;41079;52.856;6.534;2022-08-21T06:57:42;812.35;;;297.80;;
55206;SDS011;41079;52.856;6.534;2022-08-21T07:00:17;806.28;;;289.70;;
55206;SDS011;41079;52.856;6.534;2022-08-21T07:02:46;807.58;;;290.40;;
55206;SDS011;41079;52.856;6.534;2022-08-21T07:08:01;812.78;;;292.13;;
55206;SDS011;41079;52.856;6.534;2022-08-21T07:10:27;806.47;;;285.60;;
55206;SDS011;41079;52.856;6.534;2022-08-21T07:12:53;799.85;;;278.30;;
55206;SDS011;41079;52.856;6.534;2022-08-21T07:15:19;804.20;;;281.70;;
55206;SDS011;41079;52.856;6.534;2022-08-21T07:17:45;802.05;;;278.83;;
55206;SDS011;41079;52.856;6.534;2022-08-21T07:20:11;808.83;;;283.27;;
55206;SDS011;41079;52.856;6.534;2022-08-21T07:22:36;806.30;;;280.75;;
55206;SDS011;41079;52.856;6.534;2022-08-21T07:25:04;810.50;;;284.38;;
55206;SDS011;41079;52.856;6.534;2022-08-21T07:27:30;808.17;;;280.92;;
55206;SDS011;41079;52.856;6.534;2022-08-21T07:29:56;808.30;;;280.08;;
55206;SDS011;41079;52.856;6.534;2022-08-21T07:32:25;812.70;;;282.60;;
55206;SDS011;41079;52.856;6.534;2022-08-21T07:34:54;810.67;;;280.35;;
55206;SDS011;41079;52.856;6.534;2022-08-21T07:37:19;811.50;;;280.05;;
55206;SDS011;41079;52.856;6.534;2022-08-21T07:39:46;809.38;;;278.55;;
55206;SDS011;41079;52.856;6.534;2022-08-21T07:42:13;819.05;;;285.65;;
55206;SDS011;41079;52.856;6.534;2022-08-21T07:44:39;810.75;;;278.38;;
55206;SDS011;41079;52.856;6.534;2022-08-21T07:47:06;814.67;;;281.08;;
55206;SDS011;41079;52.856;6.534;2022-08-21T07:49:32;818.80;;;283.88;;
55206;SDS011;41079;52.856;6.534;2022-08-21T07:51:58;812.53;;;279.40;;
55206;SDS011;41079;52.856;6.534;2022-08-21T07:54:23;818.42;;;283.08;;
55206;SDS011;41079;52.856;6.534;2022-08-21T07:56:51;823.08;;;286.40;;
55206;SDS011;41079;52.856;6.534;2022-08-21T07:59:21;818.88;;;281.60;;
55206;SDS011;41079;52.856;6.534;2022-08-21T08:01:47;816.95;;;280.17;;
55206;SDS011;41079;52.856;6.534;2022-08-21T08:04:13;819.65;;;282.17;;
55206;SDS011;41079;52.856;6.534;2022-08-21T08:06:40;820.90;;;282.77;;
55206;SDS011;41079;52.856;6.534;2022-08-21T08:09:06;815.80;;;277.65;;
55206;SDS011;41079;52.856;6.534;2022-08-21T08:11:35;823.08;;;283.45;;
55206;SDS011;41079;52.856;6.534;2022-08-21T08:14:03;820.85;;;282.02;;
55206;SDS011;41079;52.856;6.534;2022-08-21T08:16:29;827.47;;;286.98;;
55206;SDS011;41079;52.856;6.534;2022-08-21T08:18:54;821.42;;;282.83;;
55206;SDS011;41079;52.856;6.534;2022-08-21T08:21:21;829.17;;;288.13;;
55206;SDS011;41079;52.856;6.534;2022-08-21T08:23:48;826.33;;;286.00;;
55206;SDS011;41079;52.856;6.534;2022-08-21T08:26:14;823.90;;;283.67;;
55206;SDS011;41079;52.856;6.534;2022-08-21T08:28:40;820.78;;;281.73;;
55206;SDS011;41079;52.856;6.534;2022-08-21T08:31:06;822.58;;;283.15;;
55206;SDS011;41079;52.856;6.534;2022-08-21T08:33:33;822.13;;;281.90;;
55206;SDS011;41079;52.856;6.534;2022-08-21T08:36:02;826.92;;;285.20;;
55206;SDS011;41079;52.856;6.534;2022-08-21T08:38:28;819.35;;;277.85;;
55206;SDS011;41079;52.856;6.534;2022-08-21T08:46:41;834.67;;;289.95;;
55206;SDS011;41079;52.856;6.534;2022-08-21T08:49:22;828.65;;;284.92;;
55206;SDS011;41079;52.856;6.534;2022-08-21T08:54:45;829.20;;;284.88;;
55206;SDS011;41079;52.856;6.534;2022-08-21T08:57:26;829.80;;;285.17;;
55206;SDS011;41079;52.856;6.534;2022-08-21T08:59:56;828.40;;;283.75;;
55206;SDS011;41079;52.856;6.534;2022-08-21T09:04:59;836.38;;;288.17;;
55206;SDS011;41079;52.856;6.534;2022-08-21T09:07:35;835.60;;;288.08;;
55206;SDS011;41079;52.856;6.534;2022-08-21T09:10:33;837.03;;;289.17;;
55206;SDS011;41079;52.856;6.534;2022-08-21T09:13:18;831.30;;;283.75;;
55206;SDS011;41079;52.856;6.534;2022-08-21T09:21:28;835.00;;;285.23;;
55206;SDS011;41079;52.856;6.534;2022-08-21T09:27:07;838.83;;;287.02;;
55206;SDS011;41079;52.856;6.534;2022-08-21T09:29:39;844.95;;;290.88;;
55206;SDS011;41079;52.856;6.534;2022-08-21T09:32:11;842.08;;;287.88;;
55206;SDS011;41079;52.856;6.534;2022-08-21T09:34:42;847.47;;;292.75;;
55206;SDS011;41079;52.856;6.534;2022-08-21T09:37:19;846.78;;;292.70;;
55206;SDS011;41079;52.856;6.534;2022-08-21T09:39:44;850.17;;;295.58;;
55206;SDS011;41079;52.856;6.534;2022-08-21T09:42:10;846.25;;;291.25;;
55206;SDS011;41079;52.856;6.534;2022-08-21T09:44:37;848.58;;;292.67;;
55206;SDS011;41079;52.856;6.534;2022-08-21T09:47:07;848.75;;;293.42;;
55206;SDS011;41079;52.856;6.534;2022-08-21T09:49:40;848.60;;;294.08;;
55206;SDS011;41079;52.856;6.534;2022-08-21T09:52:15;829.45;;;278.35;;
55206;SDS011;41079;52.856;6.534;2022-08-21T09:54:43;845.20;;;290.50;;
55206;SDS011;41079;52.856;6.534;2022-08-21T09:59:54;847.40;;;292.80;;
55206;SDS011;41079;52.856;6.534;2022-08-21T10:02:32;845.80;;;292.05;;
55206;SDS011;41079;52.856;6.534;2022-08-21T10:05:01;839.58;;;285.92;;
55206;SDS011;41079;52.856;6.534;2022-08-21T10:07:41;848.65;;;294.83;;
55206;SDS011;41079;52.856;6.534;2022-08-21T10:15:24;843.53;;;288.83;;
55206;SDS011;41079;52.856;6.534;2022-08-21T10:21:23;843.90;;;286.95;;
55206;SDS011;41079;52.856;6.534;2022-08-21T10:24:04;842.08;;;285.55;;
55206;SDS011;41079;52.856;6.534;2022-08-21T10:37:58;854.10;;;293.50;;
55206;SDS011;41079;52.856;6.534;2022-08-21T10:40:37;850.42;;;290.38;;
55206;SDS011;41079;52.856;6.534;2022-08-21T10:43:21;845.75;;;287.15;;
55206;SDS011;41079;52.856;6.534;2022-08-21T10:46:32;851.55;;;292.70;;
55206;SDS011;41079;52.856;6.534;2022-08-21T10:51:35;844.60;;;287.38;;
55206;SDS011;41079;52.856;6.534;2022-08-21T10:54:20;845.60;;;288.52;;
55206;SDS011;41079;52.856;6.534;2022-08-21T10:56:51;843.63;;;284.40;;
55206;SDS011;41079;52.856;6.534;2022-08-21T10:59:47;852.20;;;291.90;;
55206;SDS011;41079;52.856;6.534;2022-08-21T11:02:23;855.92;;;294.73;;
55206;SDS011;41079;52.856;6.534;2022-08-21T11:07:37;851.88;;;292.23;;
55206;SDS011;41079;52.856;6.534;2022-08-21T11:10:21;854.63;;;293.60;;
55206;SDS011;41079;52.856;6.534;2022-08-21T11:17:54;848.47;;;288.70;;
55206;SDS011;41079;52.856;6.534;2022-08-21T11:20:36;855.33;;;294.95;;
55206;SDS011;41079;52.856;6.534;2022-08-21T11:23:11;854.75;;;293.75;;
55206;SDS011;41079;52.856;6.534;2022-08-21T11:25:49;852.97;;;292.17;;
55206;SDS011;41079;52.856;6.534;2022-08-21T11:31:04;857.88;;;295.77;;
55206;SDS011;41079;52.856;6.534;2022-08-21T11:33:47;855.20;;;292.88;;
55206;SDS011;41079;52.856;6.534;2022-08-21T11:42:28;857.45;;;294.80;;
55206;SDS011;41079;52.856;6.534;2022-08-21T11:47:40;856.50;;;292.80;;
55206;SDS011;41079;52.856;6.534;2022-08-21T11:50:23;859.67;;;294.95;;
55206;SDS011;41079;52.856;6.534;2022-08-21T11:55:49;857.58;;;293.05;;
55206;SDS011;41079;52.856;6.534;2022-08-21T11:58:30;860.75;;;295.35;;
55206;SDS011;41079;52.856;6.534;2022-08-21T12:01:03;849.83;;;286.25;;
55206;SDS011;41079;52.856;6.534;2022-08-21T12:03:38;858.22;;;293.30;;
55206;SDS011;41079;52.856;6.534;2022-08-21T12:06:09;859.95;;;293.65;;
55206;SDS011;41079;52.856;6.534;2022-08-21T12:08:38;856.20;;;292.55;;
55206;SDS011;41079;52.856;6.534;2022-08-21T12:24:45;847.97;;;290.70;;
55206;SDS011;41079;52.856;6.534;2022-08-21T12:29:48;853.58;;;296.33;;
55206;SDS011;41079;52.856;6.534;2022-08-21T12:32:29;849.83;;;293.40;;
55206;SDS011;41079;52.856;6.534;2022-08-21T12:37:46;851.70;;;293.90;;
55206;SDS011;41079;52.856;6.534;2022-08-21T12:40:22;849.47;;;292.00;;
55206;SDS011;41079;52.856;6.534;2022-08-21T12:42:54;851.42;;;292.90;;
55206;SDS011;41079;52.856;6.534;2022-08-21T12:45:33;845.28;;;287.10;;
55206;SDS011;41079;52.856;6.534;2022-08-21T12:48:08;844.33;;;286.33;;
55206;SDS011;41079;52.856;6.534;2022-08-21T12:53:52;853.60;;;294.40;;
55206;SDS011;41079;52.856;6.534;2022-08-21T12:56:22;848.92;;;289.88;;
55206;SDS011;41079;52.856;6.534;2022-08-21T12:59:03;845.55;;;287.27;;
55206;SDS011;41079;52.856;6.534;2022-08-21T13:01:31;855.08;;;294.23;;
55206;SDS011;41079;52.856;6.534;2022-08-21T13:04:04;846.85;;;287.13;;
55206;SDS011;41079;52.856;6.534;2022-08-21T13:06:39;857.75;;;295.77;;
55206;SDS011;41079;52.856;6.534;2022-08-21T13:09:10;856.90;;;293.85;;
55206;SDS011;41079;52.856;6.534;2022-08-21T13:11:39;848.40;;;287.47;;
55206;SDS011;41079;52.856;6.534;2022-08-21T13:14:09;860.08;;;295.65;;
55206;SDS011;41079;52.856;6.534;2022-08-21T13:16:44;858.78;;;294.00;;
55206;SDS011;41079;52.856;6.534;2022-08-21T13:19:11;860.30;;;296.90;;
55206;SDS011;41079;52.856;6.534;2022-08-21T13:21:42;853.75;;;290.25;;
55206;SDS011;41079;52.856;6.534;2022-08-21T13:24:20;845.22;;;284.83;;
55206;SDS011;41079;52.856;6.534;2022-08-21T13:26:51;847.47;;;286.55;;
55206;SDS011;41079;52.856;6.534;2022-08-21T13:29:21;848.25;;;288.15;;
55206;SDS011;41079;52.856;6.534;2022-08-21T13:31:52;851.33;;;290.85;;
55206;SDS011;41079;52.856;6.534;2022-08-21T13:34:21;854.03;;;293.40;;
55206;SDS011;41079;52.856;6.534;2022-08-21T13:39:21;844.25;;;286.13;;
55206;SDS011;41079;52.856;6.534;2022-08-21T13:41:48;846.40;;;289.42;;
55206;SDS011;41079;52.856;6.534;2022-08-21T13:46:49;848.95;;;293.58;;
55206;SDS011;41079;52.856;6.534;2022-08-21T13:49:16;836.85;;;282.50;;
55206;SDS011;41079;52.856;6.534;2022-08-21T13:51:44;843.92;;;288.83;;
55206;SDS011;41079;52.856;6.534;2022-08-21T13:54:55;844.40;;;288.05;;
55206;SDS011;41079;52.856;6.534;2022-08-21T13:57:14;845.60;;;288.80;;
55206;SDS011;41079;52.856;6.534;2022-08-21T13:59:51;850.33;;;293.92;;
55206;SDS011;41079;52.856;6.534;2022-08-21T14:02:20;851.50;;;293.95;;
55206;SDS011;41079;52.856;6.534;2022-08-21T14:04:59;849.97;;;293.08;;
55206;SDS011;41079;52.856;6.534;2022-08-21T14:10:42;847.30;;;290.38;;
55206;SDS011;41079;52.856;6.534;2022-08-21T14:13:57;838.75;;;283.92;;
55206;SDS011;41079;52.856;6.534;2022-08-21T14:16:22;842.67;;;288.30;;
55206;SDS011;41079;52.856;6.534;2022-08-21T14:21:39;840.28;;;286.48;;
55206;SDS011;41079;52.856;6.534;2022-08-21T14:24:12;838.88;;;285.98;;
55206;SDS011;41079;52.856;6.534;2022-08-21T14:29:49;837.47;;;285.33;;
55206;SDS011;41079;52.856;6.534;2022-08-21T14:34:45;845.65;;;293.05;;
55206;SDS011;41079;52.856;6.534;2022-08-21T14:37:10;837.50;;;286.65;;
55206;SDS011;41079;52.856;6.534;2022-08-21T14:39:36;839.22;;;288.85;;
55206;SDS011;41079;52.856;6.534;2022-08-21T14:42:01;835.33;;;285.17;;
55206;SDS011;41079;52.856;6.534;2022-08-21T14:44:28;834.35;;;285.40;;
55206;SDS011;41079;52.856;6.534;2022-08-21T14:46:56;841.08;;;290.40;;
55206;SDS011;41079;52.856;6.534;2022-08-21T14:49:23;832.78;;;283.98;;
55206;SDS011;41079;52.856;6.534;2022-08-21T14:51:51;838.97;;;288.60;;
55206;SDS011;41079;52.856;6.534;2022-08-21T14:54:23;837.70;;;288.42;;
55206;SDS011;41079;52.856;6.534;2022-08-21T14:56:56;832.00;;;283.88;;
55206;SDS011;41079;52.856;6.534;2022-08-21T15:01:54;833.45;;;285.52;;
55206;SDS011;41079;52.856;6.534;2022-08-21T15:04:30;837.70;;;289.80;;
55206;SDS011;41079;52.856;6.534;2022-08-21T15:06:55;830.25;;;283.20;;
55206;SDS011;41079;52.856;6.534;2022-08-21T15:09:21;836.03;;;288.02;;
55206;SDS011;41079;52.856;6.534;2022-08-21T15:11:51;832.42;;;285.60;;
55206;SDS011;41079;52.856;6.534;2022-08-21T15:14:20;834.00;;;287.77;;
55206;SDS011;41079;52.856;6.534;2022-08-21T15:19:17;836.50;;;290.08;;
55206;SDS011;41079;52.856;6.534;2022-08-21T15:21:43;834.13;;;287.67;;
55206;SDS011;41079;52.856;6.534;2022-08-21T15:24:08;838.33;;;291.25;;
55206;SDS011;41079;52.856;6.534;2022-08-21T15:26:35;833.65;;;288.58;;
55206;SDS011;41079;52.856;6.534;2022-08-21T15:29:07;833.42;;;287.42;;
55206;SDS011;41079;52.856;6.534;2022-08-21T15:31:53;838.90;;;291.85;;
55206;SDS011;41079;52.856;6.534;2022-08-21T15:34:26;838.28;;;291.17;;
55206;SDS011;41079;52.856;6.534;2022-08-21T15:36:54;836.83;;;289.15;;
55206;SDS011;41079;52.856;6.534;2022-08-21T15:39:23;836.50;;;288.35;;
55206;SDS011;41079;52.856;6.534;2022-08-21T15:41:50;830.15;;;283.02;;
55206;SDS011;41079;52.856;6.534;2022-08-21T15:44:15;838.90;;;290.67;;
55206;SDS011;41079;52.856;6.534;2022-08-21T15:46:41;837.35;;;288.65;;
55206;SDS011;41079;52.856;6.534;2022-08-21T15:49:13;839.17;;;289.83;;
55206;SDS011;41079;52.856;6.534;2022-08-21T15:51:39;836.72;;;289.02;;
55206;SDS011;41079;52.856;6.534;2022-08-21T15:54:04;831.20;;;283.52;;
55206;SDS011;41079;52.856;6.534;2022-08-21T15:56:34;833.17;;;284.63;;
55206;SDS011;41079;52.856;6.534;2022-08-21T15:59:04;836.75;;;287.95;;
55206;SDS011;41079;52.856;6.534;2022-08-21T16:03:59;831.88;;;284.45;;
55206;SDS011;41079;52.856;6.534;2022-08-21T16:06:24;841.10;;;291.33;;
55206;SDS011;41079;52.856;6.534;2022-08-21T16:08:50;841.05;;;292.30;;
55206;SDS011;41079;52.856;6.534;2022-08-21T16:11:16;834.88;;;287.67;;
55206;SDS011;41079;52.856;6.534;2022-08-21T16:13:43;837.17;;;289.48;;
55206;SDS011;41079;52.856;6.534;2022-08-21T16:16:10;832.15;;;285.90;;
55206;SDS011;41079;52.856;6.534;2022-08-21T16:18:41;835.50;;;288.25;;
55206;SDS011;41079;52.856;6.534;2022-08-21T16:21:06;841.63;;;292.33;;
55206;SDS011;41079;52.856;6.534;2022-08-21T16:23:33;839.05;;;290.63;;
55206;SDS011;41079;52.856;6.534;2022-08-21T16:26:02;837.08;;;288.58;;
55206;SDS011;41079;52.856;6.534;2022-08-21T16:28:28;837.53;;;289.95;;
55206;SDS011;41079;52.856;6.534;2022-08-21T16:30:55;835.30;;;289.27;;
55206;SDS011;41079;52.856;6.534;2022-08-21T16:36:07;833.90;;;287.60;;
55206;SDS011;41079;52.856;6.534;2022-08-21T16:38:36;829.63;;;284.92;;
55206;SDS011;41079;52.856;6.534;2022-08-21T16:41:04;837.53;;;290.70;;
55206;SDS011;41079;52.856;6.534;2022-08-21T16:43:33;838.63;;;291.75;;
55206;SDS011;41079;52.856;6.534;2022-08-21T16:45:59;837.78;;;291.13;;
55206;SDS011;41079;52.856;6.534;2022-08-21T16:48:25;831.70;;;287.35;;
55206;SDS011;41079;52.856;6.534;2022-08-21T16:50:55;832.03;;;287.20;;
55206;SDS011;41079;52.856;6.534;2022-08-21T16:53:24;832.22;;;287.38;;
55206;SDS011;41079;52.856;6.534;2022-08-21T16:55:50;833.03;;;288.20;;
55206;SDS011;41079;52.856;6.534;2022-08-21T16:58:18;828.85;;;284.63;;
55206;SDS011;41079;52.856;6.534;2022-08-21T17:00:48;829.15;;;285.33;;
55206;SDS011;41079;52.856;6.534;2022-08-21T17:03:15;829.47;;;285.63;;
55206;SDS011;41079;52.856;6.534;2022-08-21T17:05:44;833.03;;;288.98;;
55206;SDS011;41079;52.856;6.534;2022-08-21T17:08:09;833.55;;;289.20;;
55206;SDS011;41079;52.856;6.534;2022-08-21T17:10:36;833.40;;;289.08;;
55206;SDS011;41079;52.856;6.534;2022-08-21T17:13:05;825.42;;;283.88;;
55206;SDS011;41079;52.856;6.534;2022-08-21T17:15:32;828.22;;;285.05;;
55206;SDS011;41079;52.856;6.534;2022-08-21T17:18:00;824.47;;;283.08;;
55206;SDS011;41079;52.856;6.534;2022-08-21T17:20:31;828.97;;;286.33;;
55206;SDS011;41079;52.856;6.534;2022-08-21T17:22:57;830.75;;;288.30;;
55206;SDS011;41079;52.856;6.534;2022-08-21T17:25:37;829.35;;;286.33;;
55206;SDS011;41079;52.856;6.534;2022-08-21T17:28:11;831.95;;;289.33;;
55206;SDS011;41079;52.856;6.534;2022-08-21T17:30:45;824.13;;;283.35;;
55206;SDS011;41079;52.856;6.534;2022-08-21T17:35:39;833.13;;;290.85;;
55206;SDS011;41079;52.856;6.534;2022-08-21T17:38:04;827.85;;;287.45;;
55206;SDS011;41079;52.856;6.534;2022-08-21T17:40:31;825.88;;;285.17;;
55206;SDS011;41079;52.856;6.534;2022-08-21T17:42:56;822.35;;;283.23;;
55206;SDS011;41079;52.856;6.534;2022-08-21T17:45:22;819.42;;;280.40;;
55206;SDS011;41079;52.856;6.534;2022-08-21T17:47:48;818.83;;;280.83;;
55206;SDS011;41079;52.856;6.534;2022-08-21T17:53:13;820.65;;;282.98;;
55206;SDS011;41079;52.856;6.534;2022-08-21T17:58:28;827.28;;;287.70;;
55206;SDS011;41079;52.856;6.534;2022-08-21T18:13:25;827.58;;;290.15;;
55206;SDS011;41079;52.856;6.534;2022-08-21T18:15:58;814.08;;;279.27;;
55206;SDS011;41079;52.856;6.534;2022-08-21T18:26:47;827.20;;;291.55;;
55206;SDS011;41079;52.856;6.534;2022-08-21T18:29:17;816.95;;;283.42;;
55206;SDS011;41079;52.856;6.534;2022-08-21T18:34:49;815.50;;;283.52;;
55206;SDS011;41079;52.856;6.534;2022-08-21T18:39:46;812.10;;;281.27;;
55206;SDS011;41079;52.856;6.534;2022-08-21T18:42:14;818.60;;;286.60;;
55206;SDS011;41079;52.856;6.534;2022-08-21T18:44:43;818.92;;;287.23;;